Andover, Pennsylvania
Current Conditions -  °F | °C
As of 9:53 PM on Tuesday 21 Oct 2014 (Local Time) from KHGR Reporting Station
Haze Haze  
Wind Chill: 51°   Ceiling: 8500
Heat Index: 51°   Visibility: 6mi
Dew Point: 48°   Wind: 3mph
Humidity: 89%   Direction: 10°N
Pressure: 29.93"   Gusts: NA
Location:  39.973°N, 77.9661°W
Report Text: KHGR 220153Z 01003KT 6SM BR FEW065 OVC085 11/09 A2993 RMK AO2 SLP144 T01060089
Loading
Personal Weather Stations






























Interactive Weather Map New forecast layout! Learn more

10-Day Weather Forecast

Advertisements
Track Severe Weather on mobile